createdAt,value
2023-05-19T00:01:00.431Z,101580.06
2023-05-19T00:03:27.434Z,101574.50
2023-05-19T00:05:54.453Z,101569.06
2023-05-19T00:08:23.563Z,101569.81
2023-05-19T00:10:50.673Z,101566.56
2023-05-19T00:13:17.586Z,101568.88
2023-05-19T00:15:44.653Z,101563.19
2023-05-19T00:18:14.006Z,101572.22
2023-05-19T00:20:41.387Z,101571.75
2023-05-19T00:23:08.200Z,101570.44
2023-05-19T00:25:34.866Z,101570.59
2023-05-19T00:28:02.467Z,101566.31
2023-05-19T00:30:30.450Z,101569.88
2023-05-19T00:32:57.419Z,101577.66
2023-05-19T00:35:24.615Z,101415.34
2023-05-19T00:37:51.231Z,101553.53
2023-05-19T00:40:18.951Z,101578.16
2023-05-19T00:42:45.716Z,101579.66
2023-05-19T00:45:12.430Z,101519.72
2023-05-19T00:47:39.522Z,101581.31
2023-05-19T00:50:06.914Z,101579.16
2023-05-19T00:52:33.792Z,101586.19
2023-05-19T00:55:00.924Z,101590.06
2023-05-19T00:57:28.315Z,101574.38
2023-05-19T00:59:55.468Z,101558.31
2023-05-19T01:02:22.246Z,101585.97
2023-05-19T01:04:51.148Z,101588.41
2023-05-19T01:07:18.871Z,101160.53
2023-05-19T01:09:47.361Z,101588.31
2023-05-19T01:12:14.298Z,101590.53
2023-05-19T01:14:41.758Z,101424.44
2023-05-19T01:17:18.784Z,101591.59
2023-05-19T01:20:08.276Z,101592.03
2023-05-19T01:23:15.060Z,101595.63
2023-05-19T01:25:50.739Z,101597.50
2023-05-19T01:28:57.741Z,101597.28
2023-05-19T01:31:26.732Z,101597.69
2023-05-19T01:33:54.587Z,101603.75
2023-05-19T01:36:23.362Z,101438.75
2023-05-19T01:38:56.797Z,101593.81
2023-05-19T01:41:26.244Z,101614.16
2023-05-19T01:43:54.277Z,101590.41
2023-05-19T01:46:22.246Z,101593.63
2023-05-19T01:48:49.403Z,101602.50
2023-05-19T01:51:16.060Z,101593.28
2023-05-19T01:53:42.911Z,101595.31
2023-05-19T01:56:09.834Z,101587.84
2023-05-19T01:58:48.156Z,101587.22
2023-05-19T02:01:36.630Z,101614.72
2023-05-19T02:04:30.485Z,101593.72
2023-05-19T02:07:05.338Z,101597.28
2023-05-19T02:09:35.593Z,101589.38
2023-05-19T02:12:11.011Z,101591.72
2023-05-19T02:14:52.811Z,101590.97
2023-05-19T02:17:20.828Z,101395.09
2023-05-19T02:19:47.694Z,101483.31
2023-05-19T02:22:14.914Z,101588.88
2023-05-19T02:24:41.601Z,101479.47
2023-05-19T02:27:08.359Z,101586.63
2023-05-19T02:29:35.002Z,101589.16
2023-05-19T02:32:02.148Z,101587.47
2023-05-19T02:34:28.958Z,101547.88
2023-05-19T02:36:56.564Z,101590.59
2023-05-19T02:39:23.313Z,101593.97
2023-05-19T02:41:50.084Z,101582.09
2023-05-19T02:44:16.783Z,101570.06
2023-05-19T02:46:43.634Z,101568.66
2023-05-19T02:49:11.215Z,101595.63
2023-05-19T02:51:39.094Z,101593.63
2023-05-19T02:54:05.867Z,101597.09
2023-05-19T02:56:32.599Z,101594.00
2023-05-19T02:58:59.290Z,101592.25
2023-05-19T03:01:26.358Z,101596.94
2023-05-19T03:03:53.231Z,101591.16
2023-05-19T03:06:20.012Z,101598.09
2023-05-19T03:08:46.741Z,101570.19
2023-05-19T03:11:13.649Z,101559.41
2023-05-19T03:13:40.282Z,101593.53
2023-05-19T03:16:08.036Z,101596.38
2023-05-19T03:18:35.150Z,101472.88
2023-05-19T03:21:01.885Z,101536.78
2023-05-19T03:23:28.563Z,101604.88
2023-05-19T03:25:56.289Z,101560.88
2023-05-19T03:28:23.502Z,101556.09
2023-05-19T03:30:50.948Z,101582.06
2023-05-19T03:33:20.806Z,101604.13
2023-05-19T03:35:47.873Z,101628.63
2023-05-19T03:38:15.404Z,101600.06
2023-05-19T03:40:49.491Z,101604.09
2023-05-19T03:43:16.338Z,101606.38
2023-05-19T03:45:51.798Z,101595.47
2023-05-19T03:48:53.851Z,101533.44
2023-05-19T03:51:23.416Z,101512.69
2023-05-19T03:53:54.030Z,101563.00
2023-05-19T03:56:23.087Z,101528.44
2023-05-19T03:58:49.935Z,101556.75
2023-05-19T04:01:16.636Z,101596.50
2023-05-19T04:03:43.347Z,101611.97
2023-05-19T04:06:10.130Z,101611.53
2023-05-19T04:08:36.831Z,101534.28
2023-05-19T04:11:03.673Z,101619.63
2023-05-19T04:13:33.151Z,101515.31
2023-05-19T04:16:00.028Z,101626.41
2023-05-19T04:18:28.817Z,101542.53
2023-05-19T04:20:55.832Z,101632.34
2023-05-19T04:23:22.573Z,101623.50
2023-05-19T04:25:49.762Z,101614.22
2023-05-19T04:28:16.590Z,101597.19
2023-05-19T04:30:43.283Z,101646.06
2023-05-19T04:33:09.987Z,101632.66
2023-05-19T04:35:38.209Z,101636.97
2023-05-19T04:38:05.851Z,101630.50
2023-05-19T04:40:33.954Z,101637.78
2023-05-19T04:43:02.375Z,101640.16
2023-05-19T04:45:30.327Z,101607.50
2023-05-19T04:48:00.149Z,101536.84
2023-05-19T04:50:28.627Z,101642.88
2023-05-19T04:52:58.935Z,101584.78
2023-05-19T04:55:26.077Z,101650.50
2023-05-19T04:57:53.254Z,101647.72
2023-05-19T05:00:21.298Z,101646.78
2023-05-19T05:02:58.744Z,101649.94
2023-05-19T05:05:28.370Z,101645.91
2023-05-19T05:07:55.491Z,101630.66
2023-05-19T05:10:24.137Z,101639.59
2023-05-19T05:12:51.614Z,101634.53
2023-05-19T05:15:18.842Z,101662.25
2023-05-19T05:17:48.760Z,101654.44
2023-05-19T05:20:16.414Z,101659.19
2023-05-19T05:22:43.351Z,101660.53
2023-05-19T05:25:10.958Z,101557.44
2023-05-19T05:27:38.194Z,101664.44
2023-05-19T05:30:07.402Z,101669.78
2023-05-19T05:32:34.368Z,101673.94
2023-05-19T05:35:03.315Z,101670.84
2023-05-19T05:37:31.372Z,101637.13
2023-05-19T05:39:58.192Z,101679.31
2023-05-19T05:42:25.861Z,101687.91
2023-05-19T05:44:53.832Z,101649.22
2023-05-19T05:47:20.906Z,101663.22
2023-05-19T05:49:48.670Z,101690.31
2023-05-19T05:52:18.740Z,101685.97
2023-05-19T05:54:47.935Z,101695.00
2023-05-19T05:57:17.557Z,101693.34
2023-05-19T05:59:47.072Z,101694.56
2023-05-19T06:02:14.700Z,101692.56
2023-05-19T06:04:41.832Z,101700.22
2023-05-19T06:07:08.928Z,101671.75
2023-05-19T06:09:37.936Z,101695.59
2023-05-19T06:12:06.836Z,101686.44
2023-05-19T06:14:38.911Z,101671.91
2023-05-19T06:17:11.502Z,101686.28
2023-05-19T06:19:38.511Z,101660.19
2023-05-19T06:22:05.520Z,101687.44
2023-05-19T06:24:33.128Z,101667.97
2023-05-19T06:26:59.784Z,101674.13
2023-05-19T06:29:26.657Z,101684.91
2023-05-19T06:31:55.746Z,101683.88
2023-05-19T06:34:22.505Z,101691.63
2023-05-19T06:36:49.247Z,101635.22
2023-05-19T06:39:18.269Z,101698.31
2023-05-19T06:41:45.680Z,101694.16
2023-05-19T06:44:24.522Z,101698.09
2023-05-19T06:46:51.272Z,101701.78
2023-05-19T06:49:18.069Z,101699.78
2023-05-19T06:51:46.111Z,101686.81
2023-05-19T06:54:16.006Z,101664.63
2023-05-19T06:56:42.952Z,101662.44
2023-05-19T06:59:10.454Z,101700.53
2023-05-19T07:01:38.758Z,101659.41
2023-05-19T07:04:06.165Z,101664.00
2023-05-19T07:06:33.972Z,101708.06
2023-05-19T07:09:01.113Z,101612.44
2023-05-19T07:11:28.606Z,101570.13
2023-05-19T07:13:55.739Z,101709.84
2023-05-19T07:16:27.328Z,101646.53
2023-05-19T07:18:55.323Z,101646.75
2023-05-19T07:21:22.281Z,101282.75
2023-05-19T07:23:50.093Z,101713.72
2023-05-19T07:26:16.816Z,101706.38
2023-05-19T07:28:43.630Z,101709.00
2023-05-19T07:31:10.377Z,101709.84
2023-05-19T07:33:37.124Z,101713.50
2023-05-19T07:36:04.615Z,101710.16
2023-05-19T07:38:34.510Z,101624.03
2023-05-19T07:41:02.085Z,101709.81
2023-05-19T07:43:28.772Z,101711.88
2023-05-19T07:45:56.431Z,101715.13
2023-05-19T07:48:25.645Z,101717.94
2023-05-19T07:50:53.373Z,101707.75
2023-05-19T07:53:20.605Z,101693.59
2023-05-19T07:55:47.493Z,101624.28
2023-05-19T07:58:14.802Z,101636.19
2023-05-19T08:00:43.224Z,101716.69
2023-05-19T08:03:10.243Z,101608.56
2023-05-19T08:05:37.561Z,101718.47
2023-05-19T08:08:04.661Z,101680.13
2023-05-19T08:10:31.607Z,101656.69
2023-05-19T08:12:58.508Z,101699.41
2023-05-19T08:15:25.555Z,101716.34
2023-05-19T08:17:52.574Z,101712.78
2023-05-19T08:20:19.417Z,101712.19
2023-05-19T08:22:46.215Z,101711.44
2023-05-19T08:25:13.891Z,101713.59
2023-05-19T08:27:41.436Z,101734.16
2023-05-19T08:30:08.842Z,101712.81
2023-05-19T08:32:35.761Z,101724.63
2023-05-19T08:35:02.488Z,101680.59
2023-05-19T08:37:29.181Z,101716.53
2023-05-19T08:39:55.811Z,101711.91
2023-05-19T08:42:22.971Z,101697.44
2023-05-19T08:44:49.741Z,101682.97
2023-05-19T08:47:17.850Z,101721.47
2023-05-19T08:49:46.239Z,101707.66
2023-05-19T08:52:21.020Z,101704.94
2023-05-19T08:54:55.869Z,101709.69
2023-05-19T08:57:24.939Z,101706.47
2023-05-19T08:59:52.238Z,101577.56
2023-05-19T09:02:19.925Z,101698.25
2023-05-19T09:04:48.132Z,101679.28
2023-05-19T09:07:15.588Z,101695.97
2023-05-19T09:09:44.077Z,101624.63
2023-05-19T09:12:11.714Z,101772.97
2023-05-19T09:14:38.855Z,101712.44
2023-05-19T09:17:06.004Z,101707.53
2023-05-19T09:19:33.066Z,101705.78
2023-05-19T09:22:01.460Z,101702.91
2023-05-19T09:24:28.571Z,101666.03
2023-05-19T09:27:00.202Z,101701.03
2023-05-19T09:29:27.232Z,101699.81
2023-05-19T09:32:00.521Z,101699.94
2023-05-19T09:34:27.768Z,101704.00
2023-05-19T09:36:54.644Z,101705.41
2023-05-19T09:39:23.120Z,101702.44
2023-05-19T09:41:54.218Z,101701.38
2023-05-19T09:44:21.144Z,101699.56
2023-05-19T09:46:51.826Z,101721.69
2023-05-19T09:49:22.916Z,101701.94
2023-05-19T09:51:51.232Z,101723.56
2023-05-19T09:54:20.424Z,101703.41
2023-05-19T09:56:53.169Z,101705.41
2023-05-19T09:59:23.887Z,101710.91
2023-05-19T10:01:53.483Z,101722.94
2023-05-19T10:04:21.132Z,101708.06
2023-05-19T10:06:53.490Z,101699.09
2023-05-19T10:09:26.433Z,101703.50
2023-05-19T10:11:54.673Z,101700.13
2023-05-19T10:14:28.704Z,101699.22
2023-05-19T10:16:57.693Z,101706.28
2023-05-19T10:19:26.262Z,101702.19
2023-05-19T10:21:54.073Z,101711.38
2023-05-19T10:24:21.698Z,101702.56
2023-05-19T10:26:53.410Z,101706.63
2023-05-19T10:29:25.552Z,101706.88
2023-05-19T10:31:54.289Z,101719.03
2023-05-19T10:34:25.987Z,101709.50
2023-05-19T10:37:25.017Z,101716.03
2023-05-19T10:39:52.552Z,101685.63
2023-05-19T10:42:38.064Z,101725.81
2023-05-19T10:45:17.039Z,101723.31
2023-05-19T10:47:44.631Z,101718.31
2023-05-19T10:50:12.072Z,101717.34
2023-05-19T10:52:39.789Z,101714.72
2023-05-19T10:55:17.666Z,101721.06
2023-05-19T10:57:56.791Z,101697.06
2023-05-19T11:00:28.261Z,101713.97
2023-05-19T11:03:13.574Z,101712.88
2023-05-19T11:05:40.626Z,101710.59
2023-05-19T11:08:12.083Z,101678.38
2023-05-19T11:10:39.226Z,101682.63
2023-05-19T11:13:06.797Z,101707.56
2023-05-19T11:15:39.094Z,101711.72
2023-05-19T11:18:06.185Z,101705.75
2023-05-19T11:20:35.071Z,101707.63
2023-05-19T11:23:06.841Z,101710.19
2023-05-19T11:25:54.378Z,101712.69
2023-05-19T11:28:28.042Z,101703.47
2023-05-19T11:30:57.802Z,101703.94
2023-05-19T11:33:27.583Z,101709.00
2023-05-19T11:35:58.528Z,101671.91
2023-05-19T11:38:26.440Z,101620.03
2023-05-19T11:40:54.142Z,101722.53
2023-05-19T11:43:24.993Z,101700.22
2023-05-19T11:45:52.069Z,101637.88
2023-05-19T11:48:22.656Z,101698.09
2023-05-19T11:50:50.206Z,101705.47
2023-05-19T11:53:17.646Z,101711.00
2023-05-19T11:55:49.037Z,101711.94
2023-05-19T11:58:16.780Z,101713.50
2023-05-19T12:00:46.725Z,101704.88
2023-05-19T12:03:13.735Z,101708.72
2023-05-19T12:05:45.921Z,101709.31
2023-05-19T12:08:13.448Z,101717.31
2023-05-19T12:10:40.573Z,101706.91
2023-05-19T12:13:10.692Z,101715.88
2023-05-19T12:15:37.825Z,101681.03
2023-05-19T12:18:04.687Z,101714.28
2023-05-19T12:20:32.617Z,101707.91
2023-05-19T12:23:00.807Z,101677.69
2023-05-19T12:25:29.227Z,101700.13
2023-05-19T12:28:03.247Z,101699.16
2023-05-19T12:30:33.099Z,101709.13
2023-05-19T12:33:01.994Z,101682.50
2023-05-19T12:35:32.130Z,101706.09
2023-05-19T12:38:03.661Z,101709.88
2023-05-19T12:40:30.642Z,101767.94
2023-05-19T12:42:59.317Z,101710.69
2023-05-19T12:45:28.587Z,101715.28
2023-05-19T12:47:56.008Z,101583.94
2023-05-19T12:50:30.877Z,101677.22
2023-05-19T12:52:59.816Z,101709.78
2023-05-19T12:55:27.029Z,101692.53
2023-05-19T12:57:56.973Z,101720.59
2023-05-19T13:00:32.628Z,101716.41
2023-05-19T13:03:02.859Z,101636.22
2023-05-19T13:05:34.313Z,101708.91
2023-05-19T13:08:02.314Z,101699.34
2023-05-19T13:10:31.337Z,101605.50
2023-05-19T13:13:17.447Z,101714.59
2023-05-19T13:16:03.196Z,101562.94
2023-05-19T13:18:48.263Z,101703.75
2023-05-19T13:21:15.817Z,101701.81
2023-05-19T13:23:42.522Z,101699.03
2023-05-19T13:26:11.531Z,101698.31
2023-05-19T13:28:38.197Z,101688.16
2023-05-19T13:31:05.038Z,101689.50
2023-05-19T13:33:32.132Z,101681.47
2023-05-19T13:35:58.868Z,101658.75
2023-05-19T13:38:25.574Z,101665.47
2023-05-19T13:40:52.383Z,101643.09
2023-05-19T13:43:19.058Z,101712.94
2023-05-19T13:45:45.833Z,101627.75
2023-05-19T13:48:13.133Z,101669.16
2023-05-19T13:50:40.031Z,101707.72
2023-05-19T13:53:06.817Z,101642.84
2023-05-19T13:55:33.674Z,101696.16
2023-05-19T13:58:00.475Z,101702.41
2023-05-19T14:00:27.280Z,101712.81
2023-05-19T14:02:54.040Z,101616.47
2023-05-19T14:05:20.909Z,101706.75
2023-05-19T14:07:47.654Z,101708.53
2023-05-19T14:10:14.477Z,101704.72
2023-05-19T14:13:06.496Z,101636.59
2023-05-19T14:15:28.261Z,101640.66
2023-05-19T14:17:55.114Z,101718.06
2023-05-19T14:20:22.072Z,101641.59
2023-05-19T14:22:48.764Z,101647.72
2023-05-19T14:25:15.739Z,101694.88
2023-05-19T14:27:42.481Z,101720.75
2023-05-19T14:30:09.730Z,101447.16
2023-05-19T14:32:36.610Z,101714.28
2023-05-19T14:35:03.766Z,101711.19
2023-05-19T14:37:31.911Z,101711.19
2023-05-19T14:39:59.677Z,101606.13
2023-05-19T14:42:26.347Z,101673.94
2023-05-19T14:44:53.107Z,101707.06
2023-05-19T14:47:19.917Z,101704.31
2023-05-19T14:49:46.921Z,101715.88
2023-05-19T14:52:13.613Z,101723.34
2023-05-19T14:54:40.441Z,101717.81
2023-05-19T14:57:08.222Z,101719.75
2023-05-19T14:59:38.519Z,101717.44
2023-05-19T15:02:06.113Z,101723.06
2023-05-19T15:04:32.844Z,101713.13
2023-05-19T15:07:09.839Z,101697.25
2023-05-19T15:09:37.523Z,101714.22
2023-05-19T15:12:04.346Z,101718.75
2023-05-19T15:14:31.428Z,101641.66
2023-05-19T15:16:58.711Z,101699.91
2023-05-19T15:19:26.178Z,101724.16
2023-05-19T15:21:53.191Z,101722.63
2023-05-19T15:24:20.982Z,101699.00
2023-05-19T15:26:47.858Z,101726.41
2023-05-19T15:29:14.628Z,101746.34
2023-05-19T15:31:41.643Z,101722.88
2023-05-19T15:34:08.736Z,101720.56
2023-05-19T15:36:35.588Z,101720.00
2023-05-19T15:39:03.729Z,101720.00
2023-05-19T15:41:30.814Z,101724.28
2023-05-19T15:44:00.156Z,101720.06
2023-05-19T15:46:27.238Z,101714.94
2023-05-19T15:48:54.037Z,101727.72
2023-05-19T15:51:21.017Z,101661.31
2023-05-19T15:53:48.032Z,101725.22
2023-05-19T15:56:14.833Z,101729.03
2023-05-19T15:58:41.649Z,101696.59
2023-05-19T16:01:08.797Z,101622.94
2023-05-19T16:03:35.756Z,101728.66
2023-05-19T16:06:02.710Z,101631.88
2023-05-19T16:08:29.689Z,101728.91
2023-05-19T16:10:56.403Z,101724.50
2023-05-19T16:13:23.235Z,101693.72
2023-05-19T16:15:50.060Z,101705.25
2023-05-19T16:18:16.991Z,101712.34
2023-05-19T16:20:44.127Z,101732.88
2023-05-19T16:23:10.954Z,101726.72
2023-05-19T16:25:37.711Z,101676.06
2023-05-19T16:28:05.128Z,101612.00
2023-05-19T16:30:32.231Z,101735.66
2023-05-19T16:32:59.637Z,101730.97
2023-05-19T16:35:29.384Z,101730.84
2023-05-19T16:37:56.258Z,101734.19
2023-05-19T16:40:23.025Z,101736.72
2023-05-19T16:42:49.876Z,101746.94
2023-05-19T16:45:17.538Z,101739.81
2023-05-19T16:47:45.541Z,101708.78
2023-05-19T16:50:12.987Z,101678.09
2023-05-19T16:52:39.808Z,101738.91
2023-05-19T16:55:07.127Z,101740.00
2023-05-19T16:57:33.932Z,101700.81
2023-05-19T17:00:00.699Z,101751.38
2023-05-19T17:02:28.216Z,101748.03
2023-05-19T17:04:55.469Z,101741.72
2023-05-19T17:07:22.175Z,101715.81
2023-05-19T17:09:49.113Z,101742.22
2023-05-19T17:12:15.992Z,101747.50
2023-05-19T17:14:43.589Z,101729.53
2023-05-19T17:17:11.036Z,101738.31
2023-05-19T17:19:37.952Z,101736.28
2023-05-19T17:22:04.729Z,101748.84
2023-05-19T17:24:33.812Z,101741.78
2023-05-19T17:27:01.034Z,101658.09
2023-05-19T17:29:28.065Z,101705.53
2023-05-19T17:31:55.478Z,101733.38
2023-05-19T17:34:22.331Z,101718.03
2023-05-19T17:36:49.803Z,101733.00
2023-05-19T17:39:16.688Z,101735.16
2023-05-19T17:41:43.400Z,101733.97
2023-05-19T17:44:11.186Z,101731.72
2023-05-19T17:46:39.383Z,101707.00
2023-05-19T17:49:06.603Z,101715.59
2023-05-19T17:51:33.637Z,101702.78
2023-05-19T17:54:00.769Z,101728.19
2023-05-19T17:56:32.052Z,101716.81
2023-05-19T17:58:59.212Z,101740.34
2023-05-19T18:01:26.306Z,101736.03
2023-05-19T18:03:53.600Z,101736.78
2023-05-19T18:06:20.593Z,101733.28
2023-05-19T18:08:50.405Z,101732.59
2023-05-19T18:11:18.245Z,101719.09
2023-05-19T18:13:45.028Z,101733.28
2023-05-19T18:16:12.771Z,101732.25
2023-05-19T18:18:43.398Z,101741.34
2023-05-19T18:21:17.660Z,101655.03
2023-05-19T18:23:45.472Z,101747.72
2023-05-19T18:26:13.114Z,101681.63
2023-05-19T18:28:41.305Z,101750.47
2023-05-19T18:31:17.190Z,101579.75
2023-05-19T18:33:47.037Z,101728.91
2023-05-19T18:36:16.370Z,101718.03
2023-05-19T18:38:43.117Z,101764.47
2023-05-19T18:41:09.846Z,101763.38
2023-05-19T18:43:36.536Z,101757.78
2023-05-19T18:46:03.288Z,101766.03
2023-05-19T18:48:30.205Z,101773.00
2023-05-19T18:50:57.204Z,101771.91
2023-05-19T18:53:23.959Z,101750.16
2023-05-19T18:55:50.895Z,101773.59
2023-05-19T18:58:18.194Z,101747.22
2023-05-19T19:00:45.179Z,101722.63
2023-05-19T19:03:12.211Z,101776.00
2023-05-19T19:05:40.111Z,101777.41
2023-05-19T19:08:07.090Z,101726.53
2023-05-19T19:10:37.291Z,101710.44
2023-05-19T19:13:04.285Z,101779.31
2023-05-19T19:15:31.667Z,101784.69
2023-05-19T19:17:58.513Z,101631.41
2023-05-19T19:20:25.554Z,101791.63
2023-05-19T19:22:52.924Z,101795.09
2023-05-19T19:25:21.296Z,101678.03
2023-05-19T19:27:50.671Z,101786.09
2023-05-19T19:30:17.523Z,101799.22
2023-05-19T19:32:44.391Z,101806.16
2023-05-19T19:35:11.264Z,101787.53
2023-05-19T19:37:38.024Z,101816.91
2023-05-19T19:40:05.401Z,101813.69
2023-05-19T19:42:32.438Z,101757.72
2023-05-19T19:44:59.348Z,101807.19
2023-05-19T19:47:27.231Z,101808.13
2023-05-19T19:49:54.011Z,101794.28
2023-05-19T19:52:20.749Z,101754.00
2023-05-19T19:54:48.121Z,101823.56
2023-05-19T19:57:17.204Z,101802.53
2023-05-19T19:59:44.097Z,101723.66
2023-05-19T20:02:10.985Z,101816.28
2023-05-19T20:04:38.104Z,101784.22
2023-05-19T20:07:05.059Z,101821.59
2023-05-19T20:09:31.792Z,101825.88
2023-05-19T20:11:58.720Z,101826.00
2023-05-19T20:14:25.505Z,101831.56
2023-05-19T20:16:52.302Z,101822.88
2023-05-19T20:19:19.011Z,101826.34
2023-05-19T20:21:45.760Z,101828.41
2023-05-19T20:24:12.552Z,101826.94
2023-05-19T20:26:39.350Z,101835.66
2023-05-19T20:29:06.053Z,101829.72
2023-05-19T20:31:32.785Z,101846.00
2023-05-19T20:34:00.133Z,101843.38
2023-05-19T20:36:28.290Z,101842.47
2023-05-19T20:38:55.034Z,101931.25
2023-05-19T20:41:22.581Z,101855.13
2023-05-19T20:43:49.305Z,101846.16
2023-05-19T20:46:16.236Z,101840.66
2023-05-19T20:48:43.040Z,101854.00
2023-05-19T20:51:09.797Z,101851.47
2023-05-19T20:53:36.640Z,101854.31
2023-05-19T20:56:05.231Z,101861.59
2023-05-19T20:58:32.057Z,101845.16
2023-05-19T21:00:58.910Z,101790.41
2023-05-19T21:03:27.112Z,101845.38
2023-05-19T21:05:54.993Z,101851.69
2023-05-19T21:08:22.077Z,101838.69
2023-05-19T21:10:48.832Z,101733.63
2023-05-19T21:13:15.662Z,101853.19
2023-05-19T21:15:42.328Z,101778.41
2023-05-19T21:18:11.357Z,101759.38
2023-05-19T21:20:38.768Z,101857.16
2023-05-19T21:23:05.779Z,101828.41
2023-05-19T21:25:32.511Z,101868.31
2023-05-19T21:27:59.458Z,101868.31
2023-05-19T21:30:26.192Z,101816.38
2023-05-19T21:32:53.305Z,101868.47
2023-05-19T21:35:20.088Z,101832.72
2023-05-19T21:37:46.743Z,101849.06
2023-05-19T21:40:13.493Z,101865.38
2023-05-19T21:42:40.186Z,101843.00
2023-05-19T21:45:07.527Z,101873.50
2023-05-19T21:47:34.232Z,101802.22
2023-05-19T21:50:01.133Z,101869.88
2023-05-19T21:52:31.384Z,101865.47
2023-05-19T21:54:58.381Z,101860.66
2023-05-19T21:57:25.283Z,101805.56
2023-05-19T21:59:52.018Z,101767.19
2023-05-19T22:02:18.736Z,101862.91
2023-05-19T22:04:45.756Z,101863.25
2023-05-19T22:07:12.421Z,101862.69
2023-05-19T22:09:39.234Z,101863.41
2023-05-19T22:12:06.523Z,101860.28
2023-05-19T22:14:33.329Z,101864.59
2023-05-19T22:17:00.168Z,101822.78
2023-05-19T22:19:26.896Z,101813.47
2023-05-19T22:22:01.739Z,101860.78
2023-05-19T22:24:33.031Z,101869.78
2023-05-19T22:26:59.745Z,101861.47
2023-05-19T22:29:26.407Z,101851.09
2023-05-19T22:31:53.111Z,101869.56
2023-05-19T22:34:19.981Z,101863.19
2023-05-19T22:36:46.776Z,101869.88
2023-05-19T22:39:13.612Z,101872.19
2023-05-19T22:41:40.748Z,101862.84
2023-05-19T22:44:09.111Z,101826.88
2023-05-19T22:46:36.205Z,101874.19
2023-05-19T22:49:03.186Z,101867.78
2023-05-19T22:51:29.894Z,101745.00
2023-05-19T22:53:56.651Z,101868.97
2023-05-19T22:56:23.402Z,101835.44
2023-05-19T22:58:50.519Z,101868.44
2023-05-19T23:01:17.429Z,101733.00
2023-05-19T23:03:44.589Z,101873.44
2023-05-19T23:06:11.433Z,101858.53
2023-05-19T23:08:38.062Z,101871.63
2023-05-19T23:11:04.809Z,101873.78
2023-05-19T23:13:31.751Z,101870.31
2023-05-19T23:15:58.476Z,101871.72
2023-05-19T23:18:25.244Z,101860.78
2023-05-19T23:20:51.875Z,101889.19
2023-05-19T23:23:19.258Z,101874.41
2023-05-19T23:25:46.084Z,101880.72
2023-05-19T23:28:12.795Z,101865.13
2023-05-19T23:30:39.687Z,101875.22
2023-05-19T23:33:06.497Z,101796.88
2023-05-19T23:35:33.451Z,101881.91
2023-05-19T23:38:00.395Z,101892.78
2023-05-19T23:40:27.096Z,101887.19
2023-05-19T23:42:53.819Z,101895.31
2023-05-19T23:45:20.580Z,101894.63
2023-05-19T23:47:47.310Z,101891.06
2023-05-19T23:50:13.989Z,101896.91
2023-05-19T23:52:40.752Z,101897.56
2023-05-19T23:55:08.312Z,101886.34
2023-05-19T23:57:35.069Z,101903.66
